createdAt,value
2017-11-14T00:00:41.204Z,0.00
2017-11-14T00:03:08.667Z,0.10
2017-11-14T00:05:36.185Z,0.10
2017-11-14T00:08:03.641Z,0.10
2017-11-14T00:10:31.109Z,0.20
2017-11-14T00:12:59.337Z,0.40
2017-11-14T00:15:26.818Z,0.40
2017-11-14T00:17:54.273Z,0.50
2017-11-14T00:20:21.747Z,0.40
2017-11-14T00:22:49.220Z,0.40
2017-11-14T00:25:17.461Z,0.30
2017-11-14T00:27:44.927Z,0.30
2017-11-14T00:30:13.906Z,0.30
2017-11-14T00:32:41.377Z,0.30
2017-11-14T00:35:08.841Z,0.30
2017-11-14T00:37:36.396Z,0.20
2017-11-14T00:40:04.641Z,0.20
2017-11-14T00:42:32.105Z,0.10
2017-11-14T00:44:59.569Z,0.10
2017-11-14T00:47:27.040Z,0.10
2017-11-14T00:49:54.501Z,0.00
2017-11-14T00:52:21.971Z,0.00
2017-11-14T00:54:50.220Z,-0.20
2017-11-14T00:57:17.696Z,-0.20
2017-11-14T00:59:45.173Z,-0.30
2017-11-14T01:02:13.417Z,-0.30
2017-11-14T01:04:40.885Z,-0.30
2017-11-14T01:07:08.356Z,-0.30
2017-11-14T01:09:36.596Z,-0.30
2017-11-14T01:12:04.069Z,-0.30
2017-11-14T01:14:31.545Z,-0.30
2017-11-14T01:16:59.818Z,-0.40
2017-11-14T01:19:28.057Z,-0.40
2017-11-14T01:21:55.550Z,-0.40
2017-11-14T01:24:23.018Z,-0.40
2017-11-14T01:26:51.253Z,-0.40
2017-11-14T01:29:18.817Z,-0.40
2017-11-14T01:31:46.292Z,-0.50
2017-11-14T01:34:13.767Z,-0.50
2017-11-14T01:36:42.005Z,-0.50
2017-11-14T01:39:09.489Z,-0.50
2017-11-14T01:41:36.957Z,-0.50
2017-11-14T01:44:05.204Z,-0.50
2017-11-14T01:46:32.880Z,-0.50
2017-11-14T01:49:00.360Z,-0.50
2017-11-14T01:51:28.589Z,-0.50
2017-11-14T01:53:56.069Z,-0.60
2017-11-14T01:56:23.532Z,-0.60
2017-11-14T01:58:51.031Z,-0.60
2017-11-14T02:01:18.497Z,-0.60
2017-11-14T02:03:45.968Z,-0.60
2017-11-14T02:06:13.450Z,-0.60
2017-11-14T02:08:40.925Z,-0.50
2017-11-14T02:11:08.389Z,-0.50
2017-11-14T02:13:36.631Z,-0.60
2017-11-14T02:16:04.100Z,-0.60
2017-11-14T02:18:31.580Z,-0.60
2017-11-14T02:20:59.077Z,-0.70
2017-11-14T02:23:26.540Z,-0.70
2017-11-14T02:25:59.632Z,-0.70
2017-11-14T02:28:27.102Z,-0.70
2017-11-14T02:30:54.573Z,-0.80
2017-11-14T02:33:22.042Z,-0.80
2017-11-14T02:35:49.526Z,-0.80
2017-11-14T02:38:17.012Z,-0.90
2017-11-14T02:40:44.496Z,-0.90
2017-11-14T02:43:11.961Z,-0.90
2017-11-14T02:45:39.438Z,-1.00
2017-11-14T02:48:06.913Z,-1.00
2017-11-14T02:50:35.147Z,-1.00
2017-11-14T02:53:02.626Z,-1.10
2017-11-14T02:55:30.104Z,-1.10
2017-11-14T02:57:58.333Z,-1.20
2017-11-14T03:00:25.807Z,-1.30
2017-11-14T03:02:53.265Z,-1.30
2017-11-14T03:05:20.746Z,-1.30
2017-11-14T03:07:48.972Z,-1.30
2017-11-14T03:10:16.465Z,-1.30
2017-11-14T03:12:43.939Z,-1.30
2017-11-14T03:15:12.186Z,-1.30
2017-11-14T03:17:39.660Z,-1.30
2017-11-14T03:20:07.140Z,-1.30
2017-11-14T03:22:34.612Z,-1.40
2017-11-14T03:25:02.121Z,-1.40
2017-11-14T03:27:29.612Z,-1.40
2017-11-14T03:29:57.088Z,-1.50
2017-11-14T03:32:24.559Z,-1.50
2017-11-14T03:34:52.067Z,-1.50
2017-11-14T03:37:20.314Z,-1.50
2017-11-14T03:39:47.777Z,-1.50
2017-11-14T03:42:15.432Z,-1.50
2017-11-14T03:44:42.897Z,-1.40
2017-11-14T03:47:10.369Z,-1.30
2017-11-14T03:49:37.839Z,-1.30
2017-11-14T03:52:06.081Z,-1.50
2017-11-14T03:54:33.541Z,-1.50
2017-11-14T03:57:01.026Z,-1.60
2017-11-14T03:59:29.257Z,-1.60
2017-11-14T04:01:56.738Z,-1.70
2017-11-14T04:04:24.199Z,-1.70
2017-11-14T04:06:51.721Z,-1.80
2017-11-14T04:09:19.185Z,-1.80
2017-11-14T04:11:46.660Z,-1.90
2017-11-14T04:14:14.142Z,-1.90
2017-11-14T04:16:41.622Z,-1.80
2017-11-14T04:19:09.870Z,-1.80
2017-11-14T04:21:37.433Z,-1.80
2017-11-14T04:24:04.936Z,-1.80
2017-11-14T04:26:32.941Z,-1.80
2017-11-14T04:29:00.437Z,-1.90
2017-11-14T04:31:28.672Z,-1.90
2017-11-14T04:33:56.151Z,-1.90
2017-11-14T04:36:23.618Z,-1.90
2017-11-14T04:38:51.854Z,-1.90
2017-11-14T04:41:19.336Z,-1.90
2017-11-14T04:43:46.802Z,-1.90
2017-11-14T04:46:14.270Z,-1.90
2017-11-14T04:48:42.551Z,-1.90
2017-11-14T04:51:10.782Z,-2.00
2017-11-14T04:53:38.267Z,-2.00
2017-11-14T04:56:05.747Z,-2.00
2017-11-14T04:58:33.985Z,-1.90
2017-11-14T05:01:01.469Z,-1.90
2017-11-14T05:03:29.709Z,-1.80
2017-11-14T05:05:57.206Z,-1.90
2017-11-14T05:08:24.694Z,-1.90
2017-11-14T05:10:52.166Z,-1.90
2017-11-14T05:13:19.633Z,-1.90
2017-11-14T05:15:47.100Z,-2.00
2017-11-14T05:18:14.584Z,-2.00
2017-11-14T05:20:42.061Z,-2.00
2017-11-14T05:23:10.305Z,-2.00
2017-11-14T05:25:37.802Z,-2.00
2017-11-14T05:28:06.061Z,-2.00
2017-11-14T05:30:34.322Z,-2.00
2017-11-14T05:33:01.793Z,-2.00
2017-11-14T05:35:30.033Z,-1.90
2017-11-14T05:37:57.518Z,-1.90
2017-11-14T05:40:25.074Z,-1.90
2017-11-14T05:42:52.535Z,-1.90
2017-11-14T05:45:20.014Z,-1.80
2017-11-14T05:47:47.480Z,-1.70
2017-11-14T05:50:14.958Z,-1.70
2017-11-14T05:52:42.429Z,-1.70
2017-11-14T05:55:09.909Z,-1.70
2017-11-14T05:57:37.389Z,-1.80
2017-11-14T06:00:05.632Z,-1.80
2017-11-14T06:02:33.097Z,-1.80
2017-11-14T06:05:00.601Z,-1.80
2017-11-14T06:07:28.845Z,-1.70
2017-11-14T06:09:57.829Z,-1.60
2017-11-14T06:12:25.305Z,-1.60
2017-11-14T06:14:53.544Z,-1.30
2017-11-14T06:17:21.024Z,-1.30
2017-11-14T06:19:48.522Z,-1.20
2017-11-14T06:22:15.981Z,-1.20
2017-11-14T06:24:43.467Z,-1.30
2017-11-14T06:27:10.969Z,-1.30
2017-11-14T06:29:39.204Z,-1.30
2017-11-14T06:32:06.881Z,-1.30
2017-11-14T06:34:34.375Z,-1.30
2017-11-14T06:37:02.684Z,-1.40
2017-11-14T06:39:30.165Z,-1.40
2017-11-14T06:41:57.657Z,-1.40
2017-11-14T06:44:25.137Z,-1.30
2017-11-14T06:46:52.611Z,-1.30
2017-11-14T06:49:20.072Z,-1.30
2017-11-14T06:51:47.596Z,-1.20
2017-11-14T06:54:15.824Z,-1.10
2017-11-14T06:56:43.306Z,-1.10
2017-11-14T06:59:10.860Z,-1.10
2017-11-14T07:01:38.337Z,-1.10
2017-11-14T07:04:05.808Z,-1.00
2017-11-14T07:06:34.073Z,-0.90
2017-11-14T07:09:02.314Z,-0.90
2017-11-14T07:11:29.786Z,-0.90
2017-11-14T07:13:57.270Z,-0.90
2017-11-14T07:16:25.526Z,-0.90
2017-11-14T07:18:53.010Z,-0.90
2017-11-14T07:21:21.250Z,-0.80
2017-11-14T07:23:48.724Z,-0.90
2017-11-14T07:26:16.183Z,-0.80
2017-11-14T07:28:43.664Z,-0.80
2017-11-14T07:31:11.902Z,-0.80
2017-11-14T07:33:39.381Z,-0.80
2017-11-14T07:36:07.639Z,-0.70
2017-11-14T07:38:35.150Z,-0.70
2017-11-14T07:41:02.613Z,-0.60
2017-11-14T07:43:30.098Z,-0.60
2017-11-14T07:45:57.573Z,-0.50
2017-11-14T07:48:25.133Z,-0.50
2017-11-14T07:50:52.605Z,-0.50
2017-11-14T07:53:20.896Z,-0.30
2017-11-14T07:55:49.139Z,-0.20
2017-11-14T07:58:16.635Z,-0.30
2017-11-14T08:00:44.098Z,-0.10
2017-11-14T08:03:11.574Z,0.00
2017-11-14T08:05:39.042Z,0.00
2017-11-14T08:08:06.513Z,0.10
2017-11-14T08:10:33.990Z,0.20
2017-11-14T08:13:01.458Z,0.20
2017-11-14T08:15:28.933Z,0.30
2017-11-14T08:17:57.177Z,0.50
2017-11-14T08:20:24.663Z,0.50
2017-11-14T08:22:52.148Z,0.60
2017-11-14T08:25:19.632Z,0.70
2017-11-14T08:27:47.151Z,0.70
2017-11-14T08:30:14.644Z,0.80
2017-11-14T08:32:42.117Z,0.90
2017-11-14T08:35:09.639Z,1.00
2017-11-14T08:37:37.167Z,1.20
2017-11-14T08:40:05.428Z,1.50
2017-11-14T08:42:32.910Z,1.40
2017-11-14T08:45:01.141Z,1.70
2017-11-14T08:47:28.634Z,1.70
2017-11-14T08:49:56.892Z,2.00
2017-11-14T08:52:24.399Z,2.00
2017-11-14T08:54:52.060Z,2.10
2017-11-14T08:57:22.977Z,2.20
2017-11-14T08:59:50.470Z,2.30
2017-11-14T09:02:17.933Z,2.40
2017-11-14T09:04:45.431Z,2.40
2017-11-14T09:07:12.914Z,2.50
2017-11-14T09:09:40.376Z,2.50
2017-11-14T09:12:07.857Z,2.50
2017-11-14T09:14:35.322Z,2.60
2017-11-14T09:17:02.798Z,2.60
2017-11-14T09:19:31.029Z,2.70
2017-11-14T09:21:58.509Z,2.70
2017-11-14T09:24:27.482Z,3.00
2017-11-14T09:26:54.956Z,3.00
2017-11-14T09:29:22.421Z,3.10
2017-11-14T09:31:49.893Z,3.40
2017-11-14T09:34:18.130Z,3.80
2017-11-14T09:36:45.614Z,3.80
2017-11-14T09:39:13.069Z,4.00
2017-11-14T09:41:40.552Z,4.30
2017-11-14T09:44:08.026Z,4.50
2017-11-14T09:46:35.515Z,4.70
2017-11-14T09:49:03.001Z,4.90
2017-11-14T09:51:30.466Z,5.00
2017-11-14T09:53:58.707Z,5.20
2017-11-14T09:56:26.186Z,5.10
2017-11-14T09:58:53.655Z,5.10
2017-11-14T10:01:21.898Z,5.10
2017-11-14T10:03:49.378Z,5.10
2017-11-14T10:06:16.845Z,5.30
2017-11-14T10:08:45.085Z,5.50
2017-11-14T10:11:12.555Z,5.50
2017-11-14T10:13:40.041Z,5.70
2017-11-14T10:16:08.260Z,6.00
2017-11-14T10:18:35.740Z,6.00
2017-11-14T10:21:03.205Z,6.00
2017-11-14T10:23:30.685Z,6.00
2017-11-14T10:25:58.912Z,6.10
2017-11-14T10:28:26.415Z,6.10
2017-11-14T10:30:53.870Z,5.80
2017-11-14T10:33:21.363Z,5.50
2017-11-14T10:35:48.817Z,5.10
2017-11-14T10:38:16.285Z,4.90
2017-11-14T10:40:43.745Z,4.70
2017-11-14T10:43:11.221Z,4.70
2017-11-14T10:45:38.694Z,4.90
2017-11-14T10:48:06.177Z,5.40
2017-11-14T10:50:34.545Z,5.30
2017-11-14T10:53:02.125Z,5.20
2017-11-14T10:55:30.353Z,5.00
2017-11-14T10:57:57.862Z,4.90
2017-11-14T11:00:31.690Z,4.70
2017-11-14T11:02:59.154Z,4.70
2017-11-14T11:05:26.633Z,4.30
2017-11-14T11:07:54.103Z,4.10
2017-11-14T11:10:21.567Z,3.90
2017-11-14T11:12:49.034Z,3.90
2017-11-14T11:15:16.509Z,3.90
2017-11-14T11:17:44.745Z,4.20
2017-11-14T11:20:12.217Z,4.20
2017-11-14T11:22:39.691Z,4.40
2017-11-14T11:25:07.977Z,4.20
2017-11-14T11:27:36.210Z,3.90
2017-11-14T11:30:03.692Z,3.90
2017-11-14T11:32:31.162Z,3.60
2017-11-14T11:34:59.402Z,3.10
2017-11-14T11:37:26.870Z,3.10
2017-11-14T11:39:54.347Z,3.00
2017-11-14T11:42:22.617Z,3.10
2017-11-14T11:44:50.106Z,3.10
2017-11-14T11:47:18.462Z,3.10
2017-11-14T11:49:46.729Z,3.40
2017-11-14T11:52:14.371Z,3.40
2017-11-14T11:54:41.874Z,3.50
2017-11-14T11:57:10.111Z,3.80
2017-11-14T11:59:37.583Z,3.80
2017-11-14T12:02:05.885Z,4.10
2017-11-14T12:04:33.349Z,4.10
2017-11-14T12:07:00.845Z,4.30
2017-11-14T12:09:28.325Z,4.30
2017-11-14T12:11:55.837Z,4.40
2017-11-14T12:14:23.321Z,4.20
2017-11-14T12:16:50.832Z,3.80
2017-11-14T12:19:19.108Z,3.50
2017-11-14T12:21:47.401Z,3.40
2017-11-14T12:24:14.922Z,3.30
2017-11-14T12:26:42.414Z,3.20
2017-11-14T12:29:09.938Z,3.20
2017-11-14T12:31:37.419Z,3.10
2017-11-14T12:34:05.657Z,3.10
2017-11-14T12:36:33.898Z,3.30
2017-11-14T12:39:01.408Z,3.30
2017-11-14T12:41:28.891Z,3.50
2017-11-14T12:43:56.344Z,3.70
2017-11-14T12:46:23.821Z,3.80
2017-11-14T12:48:51.291Z,4.00
2017-11-14T12:51:18.770Z,4.10
2017-11-14T12:53:46.237Z,4.20
2017-11-14T12:56:13.713Z,4.30
2017-11-14T12:58:41.979Z,4.20
2017-11-14T13:01:09.449Z,4.20
2017-11-14T13:03:37.689Z,4.00
2017-11-14T13:06:05.156Z,3.90
2017-11-14T13:08:32.628Z,3.90
2017-11-14T13:11:00.104Z,3.90
2017-11-14T13:13:28.340Z,3.80
2017-11-14T13:15:55.820Z,3.80
2017-11-14T13:18:23.331Z,3.80
2017-11-14T13:20:51.917Z,3.70
2017-11-14T13:23:19.474Z,3.70
2017-11-14T13:25:46.986Z,3.70
2017-11-14T13:28:15.233Z,3.70
2017-11-14T13:30:42.729Z,3.70
2017-11-14T13:33:10.999Z,3.50
2017-11-14T13:35:38.458Z,3.50
2017-11-14T13:38:06.736Z,3.60
2017-11-14T13:40:34.965Z,3.60
2017-11-14T13:43:02.457Z,3.50
2017-11-14T13:45:29.946Z,3.60
2017-11-14T13:47:57.498Z,3.60
2017-11-14T13:50:25.849Z,3.30
2017-11-14T13:52:53.333Z,3.30
2017-11-14T13:55:21.599Z,3.20
2017-11-14T13:57:49.919Z,3.20
2017-11-14T14:00:17.494Z,3.20
2017-11-14T14:02:44.978Z,3.30
2017-11-14T14:05:12.490Z,3.20
2017-11-14T14:07:39.979Z,3.20
2017-11-14T14:10:07.480Z,3.10
2017-11-14T14:12:35.717Z,2.90
2017-11-14T14:15:03.220Z,2.90
2017-11-14T14:17:30.811Z,2.90
2017-11-14T14:19:58.321Z,3.00
2017-11-14T14:22:26.551Z,2.70
2017-11-14T14:24:54.122Z,2.70
2017-11-14T14:27:21.631Z,2.70
2017-11-14T14:29:49.865Z,2.60
2017-11-14T14:32:17.364Z,2.50
2017-11-14T14:34:44.849Z,2.50
2017-11-14T14:37:12.335Z,2.40
2017-11-14T14:39:39.802Z,2.30
2017-11-14T14:42:07.265Z,2.20
2017-11-14T14:44:34.737Z,2.10
2017-11-14T14:47:03.000Z,2.00
2017-11-14T14:49:30.487Z,1.90
2017-11-14T14:51:57.978Z,1.90
2017-11-14T14:54:25.463Z,1.80
2017-11-14T14:56:52.946Z,1.80
2017-11-14T14:59:21.176Z,1.70
2017-11-14T15:01:48.636Z,1.70
2017-11-14T15:04:16.107Z,1.70
2017-11-14T15:06:43.581Z,1.60
2017-11-14T15:09:11.044Z,1.60
2017-11-14T15:11:39.282Z,1.40
2017-11-14T15:14:06.775Z,1.40
2017-11-14T15:16:34.250Z,1.30
2017-11-14T15:19:02.473Z,1.10
2017-11-14T15:21:29.944Z,1.10
2017-11-14T15:23:57.400Z,1.00
2017-11-14T15:26:24.864Z,1.00
2017-11-14T15:28:52.331Z,0.90
2017-11-14T15:31:19.848Z,0.80
2017-11-14T15:33:47.338Z,0.70
2017-11-14T15:36:15.625Z,0.70
2017-11-14T15:38:43.197Z,0.60
2017-11-14T15:41:11.438Z,0.50
2017-11-14T15:43:38.928Z,0.50
2017-11-14T15:46:07.293Z,0.50
2017-11-14T15:48:34.772Z,0.50
2017-11-14T15:51:03.015Z,0.50
2017-11-14T15:53:30.485Z,0.50
2017-11-14T15:55:57.977Z,0.60
2017-11-14T15:58:25.501Z,0.70
2017-11-14T16:00:53.750Z,0.70
2017-11-14T16:03:21.229Z,0.60
2017-11-14T16:05:48.701Z,0.70
2017-11-14T16:08:16.240Z,0.70
2017-11-14T16:10:43.707Z,0.70
2017-11-14T16:13:11.172Z,0.70
2017-11-14T16:15:38.642Z,0.70
2017-11-14T16:18:06.995Z,0.90
2017-11-14T16:20:34.461Z,0.90
2017-11-14T16:23:01.937Z,1.00
2017-11-14T16:25:30.164Z,1.00
2017-11-14T16:27:57.712Z,1.00
2017-11-14T16:30:25.241Z,1.00
2017-11-14T16:32:54.501Z,1.10
2017-11-14T16:35:21.969Z,1.00
2017-11-14T16:37:49.445Z,1.10
2017-11-14T16:40:17.676Z,1.10
2017-11-14T16:42:45.149Z,1.00
2017-11-14T16:45:12.621Z,1.00
2017-11-14T16:47:40.115Z,0.80
2017-11-14T16:50:07.597Z,0.70
2017-11-14T16:52:35.105Z,0.70
2017-11-14T16:55:03.372Z,0.60
2017-11-14T16:57:30.841Z,0.60
2017-11-14T16:59:59.097Z,0.60
2017-11-14T17:02:26.576Z,0.60
2017-11-14T17:04:54.823Z,0.60
2017-11-14T17:07:22.301Z,0.60
2017-11-14T17:09:50.106Z,0.60
2017-11-14T17:12:17.974Z,0.70
2017-11-14T17:14:45.841Z,0.60
2017-11-14T17:17:13.708Z,0.70
2017-11-14T17:19:42.393Z,0.70
2017-11-14T17:22:10.465Z,0.50
2017-11-14T17:24:39.254Z,0.50
2017-11-14T17:27:07.939Z,0.40
2017-11-14T17:29:38.188Z,0.50
2017-11-14T17:32:06.139Z,0.50
2017-11-14T17:34:33.932Z,0.50
2017-11-14T17:37:01.719Z,0.50
2017-11-14T17:39:29.199Z,0.50
2017-11-14T17:41:57.492Z,0.30
2017-11-14T17:44:25.342Z,0.30
2017-11-14T17:46:53.301Z,0.30
2017-11-14T17:49:21.099Z,0.40
2017-11-14T17:51:48.621Z,0.40
2017-11-14T17:54:16.863Z,0.40
2017-11-14T17:56:44.720Z,0.40
2017-11-14T17:59:12.670Z,0.40
2017-11-14T18:01:41.375Z,0.40
2017-11-14T18:04:09.219Z,0.30
2017-11-14T18:06:37.711Z,0.40
2017-11-14T18:09:06.489Z,0.40
2017-11-14T18:11:34.766Z,0.40
2017-11-14T18:14:04.065Z,0.50
2017-11-14T18:16:33.367Z,0.60
2017-11-14T18:19:00.884Z,0.60
2017-11-14T18:21:29.406Z,0.70
2017-11-14T18:23:56.942Z,0.70
2017-11-14T18:26:25.228Z,0.80
2017-11-14T18:28:52.699Z,0.80
2017-11-14T18:31:20.466Z,0.80
2017-11-14T18:33:48.198Z,0.80
2017-11-14T18:36:18.063Z,0.90
2017-11-14T18:38:45.794Z,0.90
2017-11-14T18:41:13.265Z,0.90
2017-11-14T18:43:40.782Z,0.80
2017-11-14T18:46:08.344Z,0.90
2017-11-14T18:48:36.639Z,1.10
2017-11-14T18:51:04.111Z,1.10
2017-11-14T18:53:31.641Z,1.10
2017-11-14T18:55:59.975Z,1.10
2017-11-14T18:58:27.469Z,1.20
2017-11-14T19:00:54.945Z,1.20
2017-11-14T19:03:23.187Z,1.20
2017-11-14T19:05:50.657Z,1.20
2017-11-14T19:08:18.504Z,1.20
2017-11-14T19:11:04.912Z,1.20
2017-11-14T19:13:32.416Z,1.20
2017-11-14T19:16:01.923Z,1.20
2017-11-14T19:18:30.300Z,1.20
2017-11-14T19:20:57.793Z,1.20
2017-11-14T19:23:25.260Z,1.30
2017-11-14T19:25:52.730Z,1.40
2017-11-14T19:28:20.207Z,1.40
2017-11-14T19:30:48.471Z,1.30
2017-11-14T19:33:15.955Z,1.30
2017-11-14T19:35:44.563Z,1.40
2017-11-14T19:38:12.454Z,1.30
2017-11-14T19:40:40.394Z,1.30
2017-11-14T19:43:08.263Z,1.40
2017-11-14T19:45:35.773Z,1.40
2017-11-14T19:48:05.362Z,1.10
2017-11-14T19:50:33.309Z,0.90
2017-11-14T19:53:00.829Z,0.90
2017-11-14T19:55:31.209Z,0.90
2017-11-14T20:00:40.691Z,1.00
2017-11-14T20:03:08.491Z,1.00
2017-11-14T20:05:36.120Z,1.10
2017-11-14T20:08:05.221Z,1.00
2017-11-14T20:10:38.158Z,1.10
2017-11-14T20:13:06.984Z,1.10
2017-11-14T20:15:34.724Z,1.10
2017-11-14T20:18:03.024Z,1.20
2017-11-14T20:20:35.504Z,1.20
2017-11-14T20:23:07.941Z,1.20
2017-11-14T20:25:35.438Z,1.20
2017-11-14T20:28:02.896Z,1.30
2017-11-14T20:30:31.775Z,1.30
2017-11-14T20:33:04.058Z,1.40
2017-11-14T20:35:33.121Z,1.40
2017-11-14T20:38:01.282Z,1.40
2017-11-14T20:40:29.032Z,1.40
2017-11-14T20:42:59.154Z,1.40
2017-11-14T20:45:30.193Z,1.40
2017-11-14T20:47:57.661Z,1.40
2017-11-14T20:50:25.139Z,1.30
2017-11-14T20:52:52.628Z,1.40
2017-11-14T20:55:20.130Z,1.40
2017-11-14T20:57:47.662Z,1.50
2017-11-14T21:00:15.909Z,1.50
2017-11-14T21:02:43.745Z,1.50
2017-11-14T21:05:11.348Z,1.50
2017-11-14T21:07:50.126Z,1.50
2017-11-14T21:10:19.088Z,1.40
2017-11-14T21:12:46.547Z,1.40
2017-11-14T21:15:14.003Z,1.40
2017-11-14T21:17:41.787Z,1.40
2017-11-14T21:20:09.271Z,1.30
2017-11-14T21:22:36.752Z,1.30
2017-11-14T21:25:04.368Z,1.30
2017-11-14T21:27:31.837Z,1.30
2017-11-14T21:29:59.704Z,1.30
2017-11-14T21:32:27.984Z,1.30
2017-11-14T21:35:02.556Z,1.30
2017-11-14T21:37:30.913Z,1.40
2017-11-14T21:39:59.913Z,1.30
2017-11-14T21:42:29.783Z,1.30
2017-11-14T21:44:57.266Z,1.40
2017-11-14T21:47:24.732Z,1.40
2017-11-14T21:50:02.125Z,1.40
2017-11-14T21:52:29.735Z,1.40
2017-11-14T21:54:57.220Z,1.50
2017-11-14T21:57:37.658Z,1.40
2017-11-14T22:00:05.155Z,1.30
2017-11-14T22:02:32.906Z,1.30
2017-11-14T22:05:01.162Z,1.20
2017-11-14T22:07:29.966Z,1.10
2017-11-14T22:10:15.119Z,1.10
2017-11-14T22:12:42.657Z,1.00
2017-11-14T22:18:05.057Z,1.10
2017-11-14T22:20:36.800Z,1.10
2017-11-14T22:23:04.821Z,1.20
2017-11-14T22:25:34.139Z,1.30
2017-11-14T22:28:04.836Z,1.30
2017-11-14T22:30:32.348Z,1.30
2017-11-14T22:33:00.185Z,1.20
2017-11-14T22:35:30.529Z,1.10
2017-11-14T22:41:02.336Z,1.10
2017-11-14T22:43:31.108Z,1.20
2017-11-14T22:46:00.692Z,1.20
2017-11-14T22:48:44.485Z,1.20
2017-11-14T22:51:12.028Z,1.20
2017-11-14T22:53:39.729Z,1.30
2017-11-14T22:56:07.944Z,1.30
2017-11-14T22:58:43.073Z,1.40
2017-11-14T23:01:11.495Z,1.40
2017-11-14T23:03:38.973Z,1.40
2017-11-14T23:06:06.441Z,1.40
2017-11-14T23:08:33.924Z,1.50
2017-11-14T23:11:02.177Z,1.50
2017-11-14T23:13:29.662Z,1.50
2017-11-14T23:15:57.938Z,1.40
2017-11-14T23:18:26.237Z,1.40
2017-11-14T23:20:53.737Z,1.40
2017-11-14T23:23:21.257Z,1.40
2017-11-14T23:25:48.730Z,1.40
2017-11-14T23:28:16.233Z,1.40
2017-11-14T23:30:44.482Z,1.40
2017-11-14T23:33:12.396Z,1.40
2017-11-14T23:35:39.867Z,1.40
2017-11-14T23:38:07.331Z,1.40
2017-11-14T23:40:34.843Z,1.40
2017-11-14T23:43:02.306Z,1.40
2017-11-14T23:45:30.549Z,1.20
2017-11-14T23:47:58.022Z,1.20
2017-11-14T23:50:25.503Z,1.20
2017-11-14T23:52:53.745Z,1.20
2017-11-14T23:55:21.215Z,1.10
2017-11-14T23:57:49.271Z,1.20
